createdAt,value
2024-02-20T00:00:20.320Z,102721.59
2024-02-20T00:02:49.522Z,102719.28
2024-02-20T00:05:17.518Z,102721.59
2024-02-20T00:07:45.513Z,102726.97
2024-02-20T00:10:13.543Z,102722.72
2024-02-20T00:12:43.619Z,102714.19
2024-02-20T00:15:11.792Z,102720.38
2024-02-20T00:17:39.815Z,102727.31
2024-02-20T00:20:10.437Z,102720.34
2024-02-20T00:22:38.395Z,102716.44
2024-02-20T00:25:07.147Z,102723.78
2024-02-20T00:27:36.349Z,102724.97
2024-02-20T00:30:05.566Z,102727.25
2024-02-20T00:32:33.436Z,102733.81
2024-02-20T00:35:01.670Z,102731.50
2024-02-20T00:37:31.411Z,102727.22
2024-02-20T00:39:59.424Z,102734.56
2024-02-20T00:42:27.843Z,102734.16
2024-02-20T00:44:55.884Z,102733.38
2024-02-20T00:47:25.555Z,102735.69
2024-02-20T00:49:54.688Z,102738.38
2024-02-20T00:52:22.668Z,102740.28
2024-02-20T00:54:51.960Z,102739.91
2024-02-20T00:57:19.846Z,102739.09
2024-02-20T00:59:47.720Z,102746.44
2024-02-20T01:02:15.659Z,102733.66
2024-02-20T01:04:44.700Z,102736.72
2024-02-20T01:07:12.727Z,102736.31
2024-02-20T01:09:40.748Z,102740.97
2024-02-20T01:12:10.325Z,102740.56
2024-02-20T01:14:38.267Z,102731.66
2024-02-20T01:17:06.496Z,102741.31
2024-02-20T01:19:34.987Z,102745.16
2024-02-20T01:22:02.937Z,102734.31
2024-02-20T01:24:30.807Z,102745.94
2024-02-20T01:26:58.636Z,102748.66
2024-02-20T01:29:27.850Z,102747.84
2024-02-20T01:31:55.684Z,102742.84
2024-02-20T01:34:24.201Z,102746.31
2024-02-20T01:36:54.069Z,102748.25
2024-02-20T01:39:22.096Z,102740.13
2024-02-20T01:41:50.017Z,102745.16
2024-02-20T01:44:18.751Z,102736.66
2024-02-20T01:46:48.484Z,102731.66
2024-02-20T01:49:17.779Z,102729.72
2024-02-20T01:51:46.129Z,102735.56
2024-02-20T01:54:14.005Z,102731.69
2024-02-20T01:56:42.776Z,102731.69
2024-02-20T01:59:10.660Z,102730.56
2024-02-20T02:01:38.719Z,102731.72
2024-02-20T02:04:08.052Z,102737.91
2024-02-20T02:06:39.961Z,102739.84
2024-02-20T02:09:07.989Z,102739.50
2024-02-20T02:11:40.623Z,102741.44
2024-02-20T02:14:09.192Z,102742.22
2024-02-20T02:16:37.234Z,102749.97
2024-02-20T02:19:05.215Z,102763.16
2024-02-20T02:21:35.073Z,102758.50
2024-02-20T02:24:02.955Z,102756.22
2024-02-20T02:26:32.143Z,102749.63
2024-02-20T02:28:59.989Z,102747.34
2024-02-20T02:31:28.150Z,102750.44
2024-02-20T02:33:57.119Z,102745.81
2024-02-20T02:36:26.136Z,102741.94
2024-02-20T02:38:54.624Z,102752.41
2024-02-20T02:41:24.060Z,102753.16
2024-02-20T02:43:53.324Z,102738.50
2024-02-20T02:46:21.310Z,102742.75
2024-02-20T02:48:50.361Z,102738.91
2024-02-20T02:51:18.340Z,102743.16
2024-02-20T02:53:46.178Z,102744.72
2024-02-20T02:56:15.310Z,102742.03
2024-02-20T02:58:43.267Z,102737.38
2024-02-20T03:01:14.186Z,102738.91
2024-02-20T03:03:42.578Z,102733.50
2024-02-20T03:06:11.404Z,102731.19
2024-02-20T03:08:39.662Z,102737.38
2024-02-20T03:11:08.364Z,102743.56
2024-02-20T03:13:36.889Z,102733.91
2024-02-20T03:16:05.593Z,102731.19
2024-02-20T03:18:36.862Z,102733.13
2024-02-20T03:21:05.750Z,102742.81
2024-02-20T03:23:34.959Z,102737.38
2024-02-20T03:26:04.629Z,102737.03
2024-02-20T03:28:32.612Z,102746.34
2024-02-20T03:31:01.971Z,102735.50
2024-02-20T03:33:31.868Z,102728.13
2024-02-20T03:36:01.306Z,102730.84
2024-02-20T03:38:29.777Z,102726.59
2024-02-20T03:40:57.879Z,102726.25
2024-02-20T03:43:25.859Z,102725.09
2024-02-20T03:45:53.782Z,102719.28
2024-02-20T03:48:21.824Z,102720.06
2024-02-20T03:50:50.060Z,102715.81
2024-02-20T03:53:19.425Z,102712.34
2024-02-20T03:55:47.300Z,102706.94
2024-02-20T03:58:15.224Z,102711.22
2024-02-20T04:00:43.097Z,102707.69
2024-02-20T04:03:11.027Z,102710.81
2024-02-20T04:05:39.082Z,102708.09
2024-02-20T04:08:07.996Z,102706.16
2024-02-20T04:10:37.233Z,102705.03
2024-02-20T04:13:05.366Z,102704.25
2024-02-20T04:15:33.269Z,102704.66
2024-02-20T04:18:01.484Z,102708.91
2024-02-20T04:20:29.407Z,102714.34
2024-02-20T04:22:57.283Z,102704.66
2024-02-20T04:25:25.632Z,102712.78
2024-02-20T04:27:54.960Z,102706.56
2024-02-20T04:30:22.831Z,102705.81
2024-02-20T04:32:50.682Z,102712.78
2024-02-20T04:35:18.563Z,102712.78
2024-02-20T04:37:46.562Z,102713.56
2024-02-20T04:40:15.155Z,102721.28
2024-02-20T04:42:43.017Z,102718.97
2024-02-20T04:45:12.824Z,102705.44
2024-02-20T04:47:40.719Z,102707.38
2024-02-20T04:50:10.013Z,102704.66
2024-02-20T04:52:37.969Z,102707.38
2024-02-20T04:55:06.496Z,102703.88
2024-02-20T04:57:34.429Z,102702.31
2024-02-20T05:00:02.537Z,102701.56
2024-02-20T05:02:34.701Z,102699.97
2024-02-20T05:05:02.611Z,102706.56
2024-02-20T05:07:30.806Z,102707.34
2024-02-20T05:09:59.163Z,102705.81
2024-02-20T05:12:27.016Z,102699.25
2024-02-20T05:14:54.873Z,102706.22
2024-02-20T05:17:22.741Z,102713.16
2024-02-20T05:19:52.000Z,102709.31
2024-02-20T05:22:20.734Z,102708.16
2024-02-20T05:24:48.769Z,102701.19
2024-02-20T05:27:16.574Z,102705.84
2024-02-20T05:29:44.381Z,102699.28
2024-02-20T05:32:12.205Z,102700.84
2024-02-20T05:34:41.574Z,102703.53
2024-02-20T05:37:10.966Z,102706.25
2024-02-20T05:39:38.912Z,102701.25
2024-02-20T05:42:08.376Z,102708.19
2024-02-20T05:44:36.285Z,102701.66
2024-02-20T05:47:04.314Z,102705.13
2024-02-20T05:49:34.134Z,102693.13
2024-02-20T05:52:02.144Z,102690.44
2024-02-20T05:54:31.326Z,102690.06
2024-02-20T05:56:59.314Z,102691.25
2024-02-20T05:59:27.170Z,102692.78
2024-02-20T06:01:55.051Z,102692.78
2024-02-20T06:04:23.259Z,102693.97
2024-02-20T06:06:51.240Z,102712.53
2024-02-20T06:09:19.152Z,102711.00
2024-02-20T06:11:48.881Z,102711.34
2024-02-20T06:14:17.276Z,102709.03
2024-02-20T06:16:45.177Z,102698.56
2024-02-20T06:19:13.145Z,102697.00
2024-02-20T06:21:41.722Z,102697.00
2024-02-20T06:24:09.636Z,102693.09
2024-02-20T06:26:37.599Z,102702.41
2024-02-20T06:29:07.952Z,102698.50
2024-02-20T06:31:37.340Z,102708.56
2024-02-20T06:34:07.724Z,102707.78
2024-02-20T06:36:35.713Z,102706.25
2024-02-20T06:39:04.073Z,102700.03
2024-02-20T06:41:31.922Z,102703.13
2024-02-20T06:43:59.774Z,102710.47
2024-02-20T06:46:29.054Z,102710.84
2024-02-20T06:48:57.026Z,102723.63
2024-02-20T06:51:25.790Z,102722.81
2024-02-20T06:53:55.514Z,102718.22
2024-02-20T06:56:23.429Z,102713.94
2024-02-20T06:58:51.795Z,102711.22
2024-02-20T07:01:19.891Z,102716.22
2024-02-20T07:03:50.219Z,102711.97
2024-02-20T07:06:18.432Z,102709.63
2024-02-20T07:08:46.415Z,102705.78
2024-02-20T07:11:14.522Z,102707.69
2024-02-20T07:13:42.537Z,102703.41
2024-02-20T07:16:10.502Z,102705.34
2024-02-20T07:18:38.426Z,102718.16
2024-02-20T07:21:07.654Z,102713.50
2024-02-20T07:23:35.492Z,102717.34
2024-02-20T07:26:03.323Z,102709.63
2024-02-20T07:28:31.452Z,102711.22
2024-02-20T07:30:59.327Z,102702.28
2024-02-20T07:33:35.128Z,102700.75
2024-02-20T07:36:07.661Z,102708.88
2024-02-20T07:38:35.588Z,102713.94
2024-02-20T07:41:04.602Z,102707.75
2024-02-20T07:43:35.835Z,102706.25
2024-02-20T07:46:05.972Z,102708.56
2024-02-20T07:48:34.033Z,102714.00
2024-02-20T07:51:02.071Z,102703.94
2024-02-20T07:53:31.368Z,102707.84
2024-02-20T07:56:01.284Z,102700.09
2024-02-20T07:58:37.164Z,102708.25
2024-02-20T08:01:10.995Z,102702.44
2024-02-20T08:03:39.013Z,102704.75
2024-02-20T08:06:07.288Z,102699.34
2024-02-20T08:08:36.567Z,102690.81
2024-02-20T08:11:04.700Z,102693.56
2024-02-20T08:13:32.725Z,102703.22
2024-02-20T08:16:00.785Z,102700.16
2024-02-20T08:18:28.709Z,102702.09
2024-02-20T08:20:56.575Z,102708.69
2024-02-20T08:23:24.392Z,102711.03
2024-02-20T08:25:53.647Z,102709.50
2024-02-20T08:28:21.587Z,102709.91
2024-02-20T08:30:49.438Z,102709.13
2024-02-20T08:33:16.365Z,102704.50
2024-02-20T08:35:44.516Z,102705.75
2024-02-20T08:38:12.422Z,102708.09
2024-02-20T08:40:40.363Z,102706.19
2024-02-20T08:43:09.706Z,102697.66
2024-02-20T08:45:37.529Z,102705.84
2024-02-20T08:48:06.123Z,102708.56
2024-02-20T08:50:34.003Z,102709.78
2024-02-20T08:53:06.715Z,102711.75
2024-02-20T08:55:34.661Z,102719.50
2024-02-20T08:58:02.646Z,102711.78
2024-02-20T09:00:32.406Z,102713.34
2024-02-20T09:03:00.457Z,102710.25
2024-02-20T09:05:28.725Z,102715.28
2024-02-20T09:07:56.972Z,102723.03
2024-02-20T09:10:26.015Z,102719.56
2024-02-20T09:12:53.962Z,102713.38
2024-02-20T09:15:21.901Z,102715.31
2024-02-20T09:17:51.424Z,102706.78
2024-02-20T09:20:19.463Z,102720.34
2024-02-20T09:22:49.317Z,102709.91
2024-02-20T09:25:17.326Z,102708.75
2024-02-20T09:27:45.345Z,102704.09
2024-02-20T09:30:13.525Z,102702.53
2024-02-20T09:32:44.380Z,102713.03
2024-02-20T09:35:15.656Z,102704.09
2024-02-20T09:37:44.182Z,102703.72
2024-02-20T09:40:17.934Z,102702.53
2024-02-20T09:42:49.037Z,102697.88
2024-02-20T09:45:19.196Z,102688.97
2024-02-20T09:47:51.656Z,102685.09
2024-02-20T09:50:24.675Z,102688.97
2024-02-20T09:52:54.998Z,102682.72
2024-02-20T09:55:24.910Z,102682.75
2024-02-20T09:57:53.772Z,102682.34
2024-02-20T10:00:22.414Z,102689.34
2024-02-20T10:02:53.363Z,102687.38
2024-02-20T10:05:21.512Z,102690.84
2024-02-20T10:07:59.986Z,102692.00
2024-02-20T10:10:28.701Z,102684.63
2024-02-20T10:13:00.478Z,102680.34
2024-02-20T10:15:28.478Z,102678.75
2024-02-20T10:18:01.081Z,102679.88
2024-02-20T10:20:30.116Z,102683.75
2024-02-20T10:23:10.124Z,102690.31
2024-02-20T10:25:38.755Z,102685.25
2024-02-20T10:28:08.004Z,102680.16
2024-02-20T10:30:36.338Z,102680.16
2024-02-20T10:33:04.449Z,102669.28
2024-02-20T10:35:32.532Z,102665.38
2024-02-20T10:38:04.583Z,102666.09
2024-02-20T10:40:34.389Z,102661.03
2024-02-20T10:43:02.962Z,102664.19
2024-02-20T10:45:31.087Z,102667.25
2024-02-20T10:48:00.835Z,102656.38
2024-02-20T10:50:33.030Z,102666.88
2024-02-20T10:53:02.901Z,102656.34
2024-02-20T10:55:35.293Z,102653.25
2024-02-20T10:58:06.487Z,102643.13
2024-02-20T11:00:37.767Z,102648.53
2024-02-20T11:03:08.440Z,102648.13
2024-02-20T11:05:36.498Z,102640.34
2024-02-20T11:08:10.637Z,102636.84
2024-02-20T11:10:42.037Z,102636.44
2024-02-20T11:13:14.766Z,102635.25
2024-02-20T11:15:42.920Z,102636.00
2024-02-20T11:18:18.717Z,102635.19
2024-02-20T11:20:47.255Z,102624.63
2024-02-20T11:23:15.325Z,102617.94
2024-02-20T11:25:44.933Z,102626.06
2024-02-20T11:28:15.129Z,102616.69
2024-02-20T11:30:44.019Z,102611.16
2024-02-20T11:33:17.671Z,102612.69
2024-02-20T11:35:47.918Z,102618.44
2024-02-20T11:38:21.886Z,102606.78
2024-02-20T11:40:51.304Z,102607.94
2024-02-20T11:43:20.636Z,102600.13
2024-02-20T11:45:48.691Z,102592.69
2024-02-20T11:48:18.556Z,102604.69
2024-02-20T11:50:48.015Z,102586.03
2024-02-20T11:53:17.228Z,102580.16
2024-02-20T11:55:46.590Z,102578.94
2024-02-20T11:58:22.687Z,102570.66
2024-02-20T12:00:56.744Z,102580.34
2024-02-20T12:03:31.901Z,102576.41
2024-02-20T12:06:03.804Z,102575.25
2024-02-20T12:08:40.929Z,102561.94
2024-02-20T12:11:09.776Z,102563.44
2024-02-20T12:13:39.688Z,102552.53
2024-02-20T12:16:18.927Z,102544.66
2024-02-20T12:18:48.632Z,102535.19
2024-02-20T12:21:16.520Z,102530.47
2024-02-20T12:23:53.968Z,102526.44
2024-02-20T12:26:22.287Z,102517.81
2024-02-20T12:28:52.086Z,102505.75
2024-02-20T12:31:24.609Z,102506.19
2024-02-20T12:33:53.510Z,102502.63
2024-02-20T12:36:24.576Z,102508.47
2024-02-20T12:38:53.208Z,102504.19
2024-02-20T12:41:21.037Z,102492.06
2024-02-20T12:43:49.029Z,102496.69
2024-02-20T12:46:18.359Z,102502.88
2024-02-20T12:48:54.612Z,102491.50
2024-02-20T12:51:23.488Z,102476.56
2024-02-20T12:53:51.348Z,102480.34
2024-02-20T12:56:19.277Z,102485.34
2024-02-20T12:58:47.968Z,102490.72
2024-02-20T13:01:16.683Z,102471.97
2024-02-20T13:03:47.556Z,102468.03
2024-02-20T13:06:15.565Z,102464.84
2024-02-20T13:08:43.543Z,102454.75
2024-02-20T13:11:11.697Z,102455.47
2024-02-20T13:13:39.580Z,102451.19
2024-02-20T13:16:08.028Z,102447.16
2024-02-20T13:18:35.870Z,102448.13
2024-02-20T13:21:06.409Z,102426.06
2024-02-20T13:23:34.357Z,102432.81
2024-02-20T13:26:02.294Z,102417.59
2024-02-20T13:28:30.444Z,102424.47
2024-02-20T13:30:58.354Z,102416.03
2024-02-20T13:33:26.374Z,102424.25
2024-02-20T13:35:54.294Z,102416.50
2024-02-20T13:38:23.726Z,102410.88
2024-02-20T13:40:52.813Z,102419.41
2024-02-20T13:43:20.884Z,102412.81
2024-02-20T13:45:51.513Z,102389.41
2024-02-20T13:48:20.107Z,102399.47
2024-02-20T13:50:49.312Z,102386.91
2024-02-20T13:53:18.384Z,102395.41
2024-02-20T13:55:50.430Z,102372.59
2024-02-20T13:58:19.425Z,102375.22
2024-02-20T14:00:47.822Z,102377.50
2024-02-20T14:03:18.228Z,102380.59
2024-02-20T14:05:46.371Z,102387.25
2024-02-20T14:08:14.900Z,102379.41
2024-02-20T14:10:42.806Z,102391.25
2024-02-20T14:13:12.082Z,102380.28
2024-02-20T14:15:39.943Z,102389.38
2024-02-20T14:18:08.124Z,102398.44
2024-02-20T14:20:36.746Z,102402.41
2024-02-20T14:23:05.422Z,102406.53
2024-02-20T14:25:33.422Z,102404.13
2024-02-20T14:28:02.144Z,102401.13
2024-02-20T14:30:33.531Z,102393.84
2024-02-20T14:33:06.702Z,102396.22
2024-02-20T14:35:34.580Z,102393.59
2024-02-20T14:38:02.437Z,102392.84
2024-02-20T14:40:30.382Z,102399.06
2024-02-20T14:42:58.306Z,102403.53
2024-02-20T14:45:26.136Z,102403.91
2024-02-20T14:47:55.372Z,102411.75
2024-02-20T14:50:24.265Z,102414.16
2024-02-20T14:52:52.597Z,102427.47
2024-02-20T14:55:20.557Z,102427.53
2024-02-20T14:57:50.444Z,102434.22
2024-02-20T15:00:19.488Z,102426.09
2024-02-20T15:02:48.136Z,102435.88
2024-02-20T15:05:17.683Z,102423.44
2024-02-20T15:07:47.427Z,102409.78
2024-02-20T15:10:16.038Z,102416.00
2024-02-20T15:12:45.673Z,102423.88
2024-02-20T15:15:17.742Z,102417.66
2024-02-20T15:17:46.850Z,102406.75
2024-02-20T15:20:15.141Z,102409.91
2024-02-20T15:22:44.515Z,102396.66
2024-02-20T15:25:16.982Z,102393.22
2024-02-20T15:27:47.926Z,102393.28
2024-02-20T15:30:16.922Z,102389.78
2024-02-20T15:32:46.535Z,102381.25
2024-02-20T15:35:15.010Z,102389.84
2024-02-20T15:37:46.366Z,102384.75
2024-02-20T15:40:15.092Z,102375.84
2024-02-20T15:42:45.387Z,102373.16
2024-02-20T15:45:13.973Z,102367.69
2024-02-20T15:47:45.649Z,102369.66
2024-02-20T15:50:19.697Z,102363.84
2024-02-20T15:52:52.269Z,102379.81
2024-02-20T15:55:22.518Z,102369.66
2024-02-20T15:57:51.693Z,102370.09
2024-02-20T16:00:21.012Z,102367.38
2024-02-20T16:02:48.922Z,102372.81
2024-02-20T16:05:16.970Z,102376.72
2024-02-20T16:07:44.930Z,102370.50
2024-02-20T16:10:14.215Z,102379.84
2024-02-20T16:12:42.061Z,102377.91
2024-02-20T16:15:11.885Z,102371.72
2024-02-20T16:17:41.347Z,102365.88
2024-02-20T16:20:10.370Z,102375.97
2024-02-20T16:22:38.514Z,102378.72
2024-02-20T16:25:08.722Z,102377.19
2024-02-20T16:27:38.692Z,102378.38
2024-02-20T16:30:07.700Z,102376.06
2024-02-20T16:32:35.740Z,102368.63
2024-02-20T16:35:04.270Z,102375.28
2024-02-20T16:37:32.572Z,102372.19
2024-02-20T16:40:00.605Z,102367.50
2024-02-20T16:42:28.478Z,102370.63
2024-02-20T16:44:57.676Z,102364.81
2024-02-20T16:47:25.579Z,102371.06
2024-02-20T16:49:53.837Z,102369.09
2024-02-20T16:52:21.764Z,102368.75
2024-02-20T16:54:49.613Z,102350.84
2024-02-20T16:57:17.511Z,102348.91
2024-02-20T16:59:45.373Z,102360.19
2024-02-20T17:02:14.782Z,102355.94
2024-02-20T17:04:45.577Z,102353.97
2024-02-20T17:07:17.379Z,102353.97
2024-02-20T17:09:46.793Z,102347.78
2024-02-20T17:12:15.817Z,102353.97
2024-02-20T17:14:43.802Z,102359.44
2024-02-20T17:17:11.664Z,102362.56
2024-02-20T17:19:41.245Z,102357.13
2024-02-20T17:22:09.386Z,102365.28
2024-02-20T17:24:37.266Z,102361.41
2024-02-20T17:27:06.540Z,102360.59
2024-02-20T17:29:35.654Z,102345.44
2024-02-20T17:32:03.661Z,102341.59
2024-02-20T17:34:32.528Z,102332.66
2024-02-20T17:37:03.586Z,102334.25
2024-02-20T17:39:31.721Z,102340.88
2024-02-20T17:41:59.631Z,102343.59
2024-02-20T17:44:27.579Z,102343.22
2024-02-20T17:46:55.599Z,102334.28
2024-02-20T17:49:23.681Z,102322.25
2024-02-20T17:51:52.122Z,102333.16
2024-02-20T17:54:21.844Z,102332.78
2024-02-20T17:56:49.689Z,102333.19
2024-02-20T17:59:17.559Z,102339.47
2024-02-20T18:01:45.959Z,102326.28
2024-02-20T18:04:13.909Z,102325.53
2024-02-20T18:06:41.888Z,102329.88
2024-02-20T18:09:09.794Z,102327.53
2024-02-20T18:11:39.039Z,102331.47
2024-02-20T18:14:07.028Z,102324.09
2024-02-20T18:16:35.162Z,102337.72
2024-02-20T18:19:03.420Z,102336.19
2024-02-20T18:21:31.250Z,102337.72
2024-02-20T18:23:59.135Z,102325.28
2024-02-20T18:26:28.432Z,102326.03
2024-02-20T18:28:58.091Z,102311.66
2024-02-20T18:31:26.533Z,102311.22
2024-02-20T18:33:54.379Z,102308.88
2024-02-20T18:36:22.358Z,102310.06
2024-02-20T18:38:50.252Z,102296.81
2024-02-20T18:41:18.960Z,102296.03
2024-02-20T18:43:47.067Z,102301.50
2024-02-20T18:46:16.415Z,102286.31
2024-02-20T18:48:44.445Z,102296.03
2024-02-20T18:51:12.361Z,102292.13
2024-02-20T18:53:40.922Z,102287.44
2024-02-20T18:56:08.783Z,102298.34
2024-02-20T18:58:36.661Z,102284.34
2024-02-20T19:01:04.807Z,102287.50
2024-02-20T19:03:34.141Z,102286.78
2024-02-20T19:06:02.044Z,102291.50
2024-02-20T19:08:34.517Z,102298.16
2024-02-20T19:11:02.722Z,102287.34
2024-02-20T19:13:30.898Z,102288.94
2024-02-20T19:15:58.737Z,102284.72
2024-02-20T19:18:26.672Z,102297.53
2024-02-20T19:20:55.902Z,102291.75
2024-02-20T19:23:23.968Z,102286.69
2024-02-20T19:25:51.956Z,102295.28
2024-02-20T19:28:20.005Z,102292.19
2024-02-20T19:30:47.997Z,102295.34
2024-02-20T19:33:16.037Z,102300.81
2024-02-20T19:35:43.973Z,102298.13
2024-02-20T19:38:16.891Z,102299.72
2024-02-20T19:40:46.410Z,102302.47
2024-02-20T19:43:14.328Z,102288.88
2024-02-20T19:45:42.215Z,102283.81
2024-02-20T19:48:10.402Z,102283.81
2024-02-20T19:50:38.236Z,102289.69
2024-02-20T19:53:06.084Z,102272.97
2024-02-20T19:55:35.309Z,102278.03
2024-02-20T19:58:03.148Z,102271.88
2024-02-20T20:00:31.137Z,102262.94
2024-02-20T20:02:59.061Z,102257.50
2024-02-20T20:05:26.986Z,102260.22
2024-02-20T20:07:55.104Z,102255.53
2024-02-20T20:10:23.086Z,102248.94
2024-02-20T20:12:52.457Z,102243.50
2024-02-20T20:15:21.371Z,102245.78
2024-02-20T20:17:49.343Z,102238.41
2024-02-20T20:20:17.586Z,102234.88
2024-02-20T20:22:45.527Z,102245.75
2024-02-20T20:25:13.606Z,102244.19
2024-02-20T20:27:41.525Z,102238.34
2024-02-20T20:30:11.990Z,102219.28
2024-02-20T20:32:39.833Z,102218.47
2024-02-20T20:35:08.658Z,102216.50
2024-02-20T20:37:36.626Z,102216.88
2024-02-20T20:40:08.503Z,102221.91
2024-02-20T20:42:36.726Z,102225.78
2024-02-20T20:45:04.945Z,102231.16
2024-02-20T20:47:34.233Z,102228.78
2024-02-20T20:50:02.218Z,102234.59
2024-02-20T20:52:30.253Z,102237.28
2024-02-20T20:54:58.247Z,102229.06
2024-02-20T20:57:26.380Z,102231.38
2024-02-20T20:59:54.235Z,102229.03
2024-02-20T21:02:22.168Z,102233.28
2024-02-20T21:04:51.676Z,102223.50
2024-02-20T21:07:19.722Z,102219.63
2024-02-20T21:09:47.641Z,102219.19
2024-02-20T21:12:15.556Z,102220.31
2024-02-20T21:14:43.403Z,102219.91
2024-02-20T21:17:11.292Z,102216.78
2024-02-20T21:19:39.757Z,102213.25
2024-02-20T21:22:09.062Z,102205.44
2024-02-20T21:24:36.985Z,102210.44
2024-02-20T21:27:05.831Z,102212.78
2024-02-20T21:29:34.497Z,102215.09
2024-02-20T21:32:03.043Z,102207.69
2024-02-20T21:34:31.039Z,102199.09
2024-02-20T21:36:58.938Z,102204.13
2024-02-20T21:39:28.141Z,102201.41
2024-02-20T21:42:00.163Z,102211.53
2024-02-20T21:44:35.264Z,102215.03
2024-02-20T21:47:04.329Z,102207.63
2024-02-20T21:49:32.291Z,102207.63
2024-02-20T21:52:00.207Z,102210.69
2024-02-20T21:54:29.374Z,102211.50
2024-02-20T21:56:57.319Z,102213.78
2024-02-20T21:59:25.202Z,102197.78
2024-02-20T22:01:53.157Z,102201.28
2024-02-20T22:04:21.172Z,102198.56
2024-02-20T22:06:49.205Z,102194.66
2024-02-20T22:09:17.062Z,102190.75
2024-02-20T22:11:46.387Z,102190.75
2024-02-20T22:14:14.926Z,102191.09
2024-02-20T22:16:42.825Z,102185.66
2024-02-20T22:19:11.014Z,102179.44
2024-02-20T22:21:38.990Z,102179.44
2024-02-20T22:24:07.367Z,102170.06
2024-02-20T22:26:36.333Z,102159.97
2024-02-20T22:29:05.599Z,102169.31
2024-02-20T22:31:34.008Z,102165.06
2024-02-20T22:34:01.964Z,102180.22
2024-02-20T22:36:29.817Z,102173.22
2024-02-20T22:38:57.640Z,102168.94
2024-02-20T22:41:27.940Z,102166.22
2024-02-20T22:43:56.122Z,102165.47
2024-02-20T22:46:25.466Z,102172.44
2024-02-20T22:48:53.433Z,102158.81
2024-02-20T22:51:21.269Z,102164.28
2024-02-20T22:53:49.122Z,102169.31
2024-02-20T22:56:17.001Z,102154.91
2024-02-20T22:58:44.896Z,102157.66
2024-02-20T23:01:12.885Z,102148.28
2024-02-20T23:03:42.188Z,102142.81
2024-02-20T23:06:10.134Z,102139.34
2024-02-20T23:08:38.088Z,102131.16
2024-02-20T23:11:06.125Z,102127.69
2024-02-20T23:13:34.267Z,102116.41
2024-02-20T23:16:02.222Z,102119.56
2024-02-20T23:18:30.109Z,102118.78
2024-02-20T23:20:59.283Z,102124.31
2024-02-20T23:23:27.109Z,102124.31
2024-02-20T23:25:55.086Z,102118.06
2024-02-20T23:28:23.897Z,102116.53
2024-02-20T23:30:51.754Z,102111.50
2024-02-20T23:33:19.665Z,102106.84
2024-02-20T23:35:47.561Z,102109.22
2024-02-20T23:38:17.320Z,102102.56
2024-02-20T23:40:45.412Z,102104.94
2024-02-20T23:43:13.282Z,102094.81
2024-02-20T23:45:41.327Z,102104.94
2024-02-20T23:48:09.427Z,102099.47
2024-02-20T23:50:37.349Z,102079.66
2024-02-20T23:53:05.438Z,102093.28
2024-02-20T23:55:35.004Z,102098.72
2024-02-20T23:58:02.900Z,102087.81
